»·PEaware :: ASA327 KSFO-KPDX

ASA327 :: KSFO-KPDX

FLIGHT INFORMATION

Flight Status: Arrived
Operator:
Alaska Airlines
More flights by this operator :: More flights under this callsign
Pilot: Jim M. (18055)
Aircraft: BOEING 737-800
(B738)
More flights by this aircraft type
Origin: KSFO San Francisco Intl
United States
Destination: KPDX Portland Intl
United States
More flights between these airports :: More routes between these airports
Route: +TRUKN2 GRTFL MACHU TMBRS2
File this flight plan on PilotEdge
Remarks:
Altitude:
(Current/Filed)
38,000ft
Speed:
(Current/Filed)
450kts
Departed: 20-Sep-18 09:31 AM
Arrived: 20-Sep-18 10:51 AM
Distance/Time
Traveled:
478nm/1:20
Distance/Time
To Go:
Arrived

Flight Plot

Page will automatically refresh every two minutes.

Flight plan parsing failed; only flown route is shown


Map Options




Map Legend


Flown Route
Filed Route
Departure Airport
Arrival Airport
Navaid (VOR, NDB)
Fix

Horizontal Profiles

Position Reports

Time Latitude Longitude Heading Altitude Ground
Speed
20-Sep-18 09:02 37.612798 -122.383072 299 21ft 0kts
20-Sep-18 09:03 37.612798 -122.383072 299 21ft 0kts
20-Sep-18 09:04 37.612798 -122.383072 299 21ft 0kts
20-Sep-18 09:05 37.612798 -122.383072 299 21ft 0kts
20-Sep-18 09:06 37.612798 -122.383072 299 21ft 0kts
20-Sep-18 09:07 37.612798 -122.383072 299 21ft 0kts
20-Sep-18 09:08 37.612798 -122.383072 299 21ft 0kts
20-Sep-18 09:09 37.612798 -122.383072 299 21ft 0kts
20-Sep-18 09:10 37.612798 -122.383072 299 21ft 0kts
20-Sep-18 09:11 37.612798 -122.383072 299 21ft 0kts
20-Sep-18 09:12 37.612798 -122.383072 299 21ft 0kts
20-Sep-18 09:13 37.612798 -122.383072 299 21ft 0kts
20-Sep-18 09:14 37.612798 -122.383072 299 21ft 0kts
20-Sep-18 09:15 37.612798 -122.383072 299 21ft 0kts
20-Sep-18 09:16 37.612798 -122.383072 299 21ft 0kts
20-Sep-18 09:17 37.612798 -122.383072 299 21ft 0kts
20-Sep-18 09:18 37.612798 -122.383072 299 21ft 0kts
20-Sep-18 09:19 37.612798 -122.383072 299 21ft 0kts
20-Sep-18 09:20 37.612798 -122.383072 299 21ft 0kts
20-Sep-18 09:21 37.612798 -122.383072 299 21ft 0kts
20-Sep-18 09:22 37.612798 -122.383072 299 21ft 0kts
20-Sep-18 09:23 37.612798 -122.383072 299 21ft 0kts
20-Sep-18 09:24 37.612798 -122.383072 299 21ft 0kts
20-Sep-18 09:25 37.612798 -122.383072 299 21ft 0kts
20-Sep-18 09:26 37.612631 -122.382524 269 21ft 2kts
20-Sep-18 09:27 37.612853 -122.382145 207 21ft 0kts
20-Sep-18 09:28 37.612853 -122.382145 207 21ft 0kts
20-Sep-18 09:29 37.612853 -122.382145 207 21ft 0kts
20-Sep-18 09:30 37.611449 -122.383057 207 20ft 10kts
20-Sep-18 09:31 37.609489 -122.383491 114 20ft 6kts
20-Sep-18 09:32 37.609151 -122.382591 105 20ft 9kts
20-Sep-18 09:33 37.616924 -122.377011 28 21ft 129kts
20-Sep-18 09:34 37.651354 -122.340164 54 2304ft 189kts
20-Sep-18 09:35 37.687016 -122.273296 53 4198ft 257kts
20-Sep-18 09:36 37.741749 -122.218607 5 7173ft 269kts
20-Sep-18 09:37 37.818899 -122.217705 358 9966ft 284kts
20-Sep-18 09:38 37.904124 -122.219673 358 11534ft 340kts
20-Sep-18 09:39 38.006916 -122.222292 358 12939ft 385kts
20-Sep-18 09:40 38.115861 -122.225151 358 15176ft 400kts
20-Sep-18 09:41 38.229364 -122.228176 358 17342ft 414kts
20-Sep-18 09:42 38.346298 -122.231313 357 19357ft 426kts
20-Sep-18 09:43 38.465917 -122.242385 353 21182ft 436kts
20-Sep-18 09:44 38.588242 -122.255710 353 22808ft 446kts
20-Sep-18 09:45 38.713034 -122.268951 353 24233ft 455kts
20-Sep-18 09:46 38.840244 -122.282307 353 25535ft 462kts
20-Sep-18 09:47 38.969521 -122.295907 353 26725ft 469kts
20-Sep-18 09:48 39.100503 -122.309730 353 28018ft 470kts
20-Sep-18 09:49 39.229893 -122.323434 353 29605ft 465kts
20-Sep-18 09:50 39.358463 -122.337101 353 31128ft 461kts
20-Sep-18 09:51 39.485654 -122.350669 353 32559ft 457kts
20-Sep-18 09:52 39.612069 -122.364205 352 33896ft 454kts
20-Sep-18 09:53 39.737394 -122.377673 352 35203ft 449kts
20-Sep-18 09:54 39.861540 -122.391063 352 36350ft 446kts
20-Sep-18 09:55 39.985226 -122.404452 352 37417ft 443kts
20-Sep-18 09:56 40.108191 -122.417811 352 37974ft 443kts
20-Sep-18 09:57 40.230436 -122.431141 351 37982ft 441kts
20-Sep-18 09:58 40.352789 -122.444532 351 37983ft 441kts
20-Sep-18 09:59 40.475259 -122.457982 351 37982ft 441kts
20-Sep-18 10:00 40.597428 -122.471449 351 37989ft 440kts
20-Sep-18 10:01 40.719085 -122.484909 351 38006ft 440kts
20-Sep-18 10:02 40.841127 -122.498461 351 38040ft 439kts
20-Sep-18 10:03 40.962516 -122.511992 350 38089ft 438kts
20-Sep-18 10:04 41.083894 -122.525570 350 38138ft 436kts
20-Sep-18 10:05 41.204548 -122.539117 350 38171ft 435kts
20-Sep-18 10:06 41.325174 -122.552681 350 38188ft 434kts
20-Sep-18 10:07 41.445336 -122.566297 349 38203ft 433kts
20-Sep-18 10:08 41.565463 -122.578551 352 38210ft 433kts
20-Sep-18 10:09 41.685614 -122.585925 351 38217ft 432kts
20-Sep-18 10:10 41.806104 -122.593692 351 38219ft 432kts
20-Sep-18 10:11 41.926074 -122.601491 351 38219ft 432kts
20-Sep-18 10:12 42.045870 -122.609369 351 38219ft 430kts
20-Sep-18 10:13 42.165599 -122.617282 350 38219ft 430kts
20-Sep-18 10:14 42.285054 -122.625241 350 38217ft 430kts
20-Sep-18 10:15 42.404308 -122.633224 350 38220ft 430kts
20-Sep-18 10:16 42.524135 -122.641263 350 38221ft 430kts
20-Sep-18 10:17 42.643491 -122.649260 350 38222ft 430kts
20-Sep-18 10:18 42.763112 -122.657358 350 38225ft 430kts
20-Sep-18 10:19 42.882386 -122.665460 350 38228ft 430kts
20-Sep-18 10:20 43.002084 -122.673626 350 38231ft 430kts
20-Sep-18 10:21 43.121702 -122.681788 350 38233ft 429kts
20-Sep-18 10:22 43.240747 -122.689958 350 38237ft 428kts
20-Sep-18 10:23 43.359738 -122.698177 350 38245ft 428kts
20-Sep-18 10:24 43.478549 -122.706375 350 38241ft 428kts
20-Sep-18 10:25 43.596892 -122.714568 350 36114ft 425kts
20-Sep-18 10:26 43.715334 -122.722801 351 33359ft 428kts
20-Sep-18 10:27 43.834996 -122.731104 351 30369ft 433kts
20-Sep-18 10:28 43.934509 -122.738036 352 28334ft 425kts
20-Sep-18 10:29 44.070235 -122.747578 352 25771ft 411kts
20-Sep-18 10:30 44.183839 -122.751453 359 23738ft 411kts
20-Sep-18 10:31 44.278515 -122.741128 0 22208ft 405kts
20-Sep-18 10:32 44.407250 -122.727888 359 20158ft 387kts
20-Sep-18 10:33 44.494926 -122.719131 359 18768ft 370kts
20-Sep-18 10:34 44.612312 -122.707436 359 16960ft 339kts
20-Sep-18 10:35 44.689225 -122.699720 0 15181ft 327kts
20-Sep-18 10:36 44.778351 -122.690737 0 13038ft 315kts
20-Sep-18 10:37 44.876012 -122.680917 0 11281ft 283kts
20-Sep-18 10:38 44.940737 -122.673850 7 10969ft 283kts
20-Sep-18 10:39 45.006552 -122.610516 35 9444ft 286kts
20-Sep-18 10:40 45.069033 -122.543129 35 7823ft 281kts
20-Sep-18 10:41 45.130590 -122.477729 35 6689ft 274kts
20-Sep-18 10:42 45.190088 -122.414960 35 5901ft 253kts
20-Sep-18 10:43 45.248189 -122.358774 19 4906ft 238kts
20-Sep-18 10:44 45.310031 -122.332670 15 3607ft 232kts
20-Sep-18 10:45 45.366832 -122.309571 15 3076ft 186kts
20-Sep-18 10:46 45.414140 -122.290080 15 2992ft 178kts
20-Sep-18 10:47 45.456392 -122.310557 316 3013ft 175kts
20-Sep-18 10:48 45.491635 -122.356901 310 2955ft 160kts
20-Sep-18 10:49 45.512907 -122.410473 298 2723ft 156kts
20-Sep-18 10:50 45.534018 -122.464706 298 1878ft 154kts
20-Sep-18 10:51 45.554801 -122.517968 299 1072ft 154kts
20-Sep-18 10:52 45.575528 -122.571280 298 246ft 153kts
20-Sep-18 10:53 45.588001 -122.602469 346 38ft 10kts
20-Sep-18 10:54 45.588986 -122.602586 6 38ft 7kts
20-Sep-18 10:55 45.589077 -122.600265 118 38ft 3kts
20-Sep-18 10:56 45.587867 -122.597072 117 38ft 10kts
20-Sep-18 10:57 45.588419 -122.595863 30 38ft 0kts
20-Sep-18 10:58 45.588419 -122.595863 30 38ft 0kts
20-Sep-18 10:59 45.588419 -122.595863 30 38ft 0kts
20-Sep-18 11:00 45.588419 -122.595863 30 38ft 0kts

Navigation Log

Ident Type
Flight plan parsing failed, navigation log unavailable